createdAt,value
2023-05-19T00:00:50.253Z,72
2023-05-19T00:01:56.525Z,72
2023-05-19T00:03:02.805Z,72
2023-05-19T00:04:09.071Z,72
2023-05-19T00:05:15.438Z,72
2023-05-19T00:06:20.642Z,72
2023-05-19T00:07:25.924Z,72
2023-05-19T00:08:32.230Z,72
2023-05-19T00:09:38.530Z,72
2023-05-19T00:10:44.742Z,72
2023-05-19T00:11:51.022Z,72
2023-05-19T00:12:57.286Z,72
2023-05-19T00:14:03.562Z,73
2023-05-19T00:15:09.830Z,72
2023-05-19T00:16:16.102Z,72
2023-05-19T00:17:22.383Z,71.5
2023-05-19T00:18:28.677Z,73
2023-05-19T00:19:34.918Z,72
2023-05-19T00:20:41.196Z,72
2023-05-19T00:21:46.477Z,71.5
2023-05-19T00:22:52.757Z,71.5
2023-05-19T00:23:59.030Z,71.5
2023-05-19T00:25:05.295Z,71.5
2023-05-19T00:26:11.569Z,71.5
2023-05-19T00:27:17.841Z,71.5
2023-05-19T00:28:24.154Z,71.5
2023-05-19T00:29:30.385Z,71.5
2023-05-19T00:30:36.654Z,71.5
2023-05-19T00:31:42.923Z,72
2023-05-19T00:32:49.196Z,72
2023-05-19T00:33:55.480Z,72
2023-05-19T00:35:01.761Z,72
2023-05-19T00:36:07.033Z,72
2023-05-19T00:37:13.313Z,72
2023-05-19T00:38:19.581Z,71.5
2023-05-19T00:39:25.851Z,71.5
2023-05-19T00:40:32.121Z,72
2023-05-19T00:41:38.397Z,71.5
2023-05-19T00:42:44.666Z,71.5
2023-05-19T00:43:50.964Z,71.5
2023-05-19T00:44:57.211Z,71
2023-05-19T00:46:03.486Z,71.5
2023-05-19T00:47:09.752Z,71
2023-05-19T00:48:15.056Z,72
2023-05-19T00:49:20.376Z,71.5
2023-05-19T00:50:26.621Z,71.5
2023-05-19T00:51:32.890Z,71.5
2023-05-19T00:52:39.199Z,71.5
2023-05-19T00:53:45.433Z,71.5
2023-05-19T00:54:51.703Z,71.5
2023-05-19T00:55:57.977Z,71.5
2023-05-19T00:57:04.302Z,71
2023-05-19T00:58:10.527Z,71.5
2023-05-19T00:59:16.797Z,71.5
2023-05-19T01:00:23.066Z,71.5
2023-05-19T01:01:29.339Z,71.5
2023-05-19T01:02:35.620Z,72.5
2023-05-19T01:03:40.908Z,72.5
2023-05-19T01:04:47.171Z,71.5
2023-05-19T01:05:53.447Z,71.5
2023-05-19T01:06:59.710Z,72
2023-05-19T01:08:05.987Z,72
2023-05-19T01:09:12.271Z,72
2023-05-19T01:10:17.549Z,72
2023-05-19T01:11:22.857Z,72
2023-05-19T01:12:28.149Z,72
2023-05-19T01:13:34.419Z,72.5
2023-05-19T01:14:40.689Z,72
2023-05-19T01:15:46.962Z,71.5
2023-05-19T01:16:53.244Z,72
2023-05-19T01:17:59.514Z,71.5
2023-05-19T01:19:05.792Z,71.5
2023-05-19T01:20:12.053Z,71.5
2023-05-19T01:21:18.321Z,71.5
2023-05-19T01:22:24.624Z,72
2023-05-19T01:23:30.873Z,72
2023-05-19T01:24:37.137Z,72
2023-05-19T01:25:43.411Z,72
2023-05-19T01:26:48.706Z,72
2023-05-19T01:27:54.965Z,72.5
2023-05-19T01:29:01.274Z,72.5
2023-05-19T01:30:07.517Z,72
2023-05-19T01:31:13.803Z,72.5
2023-05-19T01:32:20.071Z,72
2023-05-19T01:33:25.362Z,72.5
2023-05-19T01:34:30.673Z,73.5
2023-05-19T01:35:36.951Z,72.5
2023-05-19T01:36:43.194Z,72.5
2023-05-19T01:37:49.477Z,72
2023-05-19T01:38:55.773Z,72.5
2023-05-19T01:40:02.006Z,72.5
2023-05-19T01:41:08.299Z,72.5
2023-05-19T01:42:14.558Z,72.5
2023-05-19T01:43:20.838Z,72.5
2023-05-19T01:44:27.096Z,73
2023-05-19T01:45:33.364Z,72.5
2023-05-19T01:46:39.647Z,73
2023-05-19T01:47:45.919Z,72.5
2023-05-19T01:48:51.203Z,72.5
2023-05-19T01:49:57.477Z,72.5
2023-05-19T01:51:03.761Z,72.5
2023-05-19T01:52:10.029Z,72.5
2023-05-19T01:53:16.317Z,72.5
2023-05-19T01:54:21.587Z,72.5
2023-05-19T01:55:26.894Z,72.5
2023-05-19T01:56:32.193Z,72.5
2023-05-19T01:57:37.475Z,72.5
2023-05-19T01:58:43.757Z,72.5
2023-05-19T01:59:50.022Z,72.5
2023-05-19T02:00:56.298Z,73
2023-05-19T02:02:02.565Z,73
2023-05-19T02:03:08.829Z,73
2023-05-19T02:04:15.112Z,73.5
2023-05-19T02:05:21.393Z,73
2023-05-19T02:06:27.661Z,73
2023-05-19T02:07:33.932Z,73
2023-05-19T02:08:40.221Z,73
2023-05-19T02:09:46.466Z,73
2023-05-19T02:10:52.735Z,73
2023-05-19T02:11:58.028Z,73.5
2023-05-19T02:13:04.299Z,73.5
2023-05-19T02:14:10.567Z,73.5
2023-05-19T02:15:16.840Z,73.5
2023-05-19T02:16:23.119Z,73.5
2023-05-19T02:17:29.379Z,73.5
2023-05-19T02:18:34.683Z,73.5
2023-05-19T02:19:40.957Z,73.5
2023-05-19T02:20:46.255Z,73.5
2023-05-19T02:21:51.560Z,74
2023-05-19T02:24:04.085Z,74
2023-05-19T02:25:10.351Z,74
2023-05-19T02:26:16.628Z,74
2023-05-19T02:27:22.906Z,74
2023-05-19T02:28:29.178Z,74.5
2023-05-19T02:29:35.442Z,74.5
2023-05-19T02:30:41.714Z,74.5
2023-05-19T02:31:47.995Z,74.5
2023-05-19T02:32:54.263Z,74.5
2023-05-19T02:34:00.533Z,74.5
2023-05-19T02:35:06.807Z,75
2023-05-19T02:36:12.120Z,74.5
2023-05-19T02:37:18.367Z,74.5
2023-05-19T02:38:24.640Z,74.5
2023-05-19T02:39:30.909Z,74.5
2023-05-19T02:40:37.193Z,74.5
2023-05-19T02:41:43.460Z,74.5
2023-05-19T02:42:49.725Z,74.5
2023-05-19T02:43:55.024Z,75
2023-05-19T02:45:00.320Z,75
2023-05-19T02:46:06.602Z,75
2023-05-19T02:47:12.858Z,75
2023-05-19T02:48:19.135Z,75
2023-05-19T02:49:25.412Z,75
2023-05-19T02:50:31.677Z,75
2023-05-19T02:51:37.954Z,75
2023-05-19T02:52:44.216Z,75
2023-05-19T02:53:50.494Z,75.5
2023-05-19T02:54:56.756Z,75
2023-05-19T02:56:03.036Z,75
2023-05-19T02:57:09.303Z,75
2023-05-19T02:58:15.584Z,75.5
2023-05-19T02:59:20.867Z,75
2023-05-19T03:00:27.145Z,75.5
2023-05-19T03:01:33.414Z,75
2023-05-19T03:02:39.699Z,75.5
2023-05-19T03:03:45.953Z,75.5
2023-05-19T03:04:52.225Z,75.5
2023-05-19T03:05:57.526Z,75.5
2023-05-19T03:07:02.832Z,76
2023-05-19T03:08:09.087Z,75.5
2023-05-19T03:09:15.364Z,75.5
2023-05-19T03:10:21.645Z,75
2023-05-19T03:11:27.904Z,75.5
2023-05-19T03:12:34.172Z,75.5
2023-05-19T03:13:40.447Z,75
2023-05-19T03:14:46.724Z,75.5
2023-05-19T03:15:52.994Z,75.5
2023-05-19T03:16:59.268Z,75.5
2023-05-19T03:18:05.543Z,75.5
2023-05-19T03:19:11.811Z,76
2023-05-19T03:20:18.093Z,75.5
2023-05-19T03:21:23.416Z,75.5
2023-05-19T03:22:29.648Z,75.5
2023-05-19T03:23:35.935Z,75.5
2023-05-19T03:24:42.187Z,75.5
2023-05-19T03:25:48.465Z,75.5
2023-05-19T03:26:54.744Z,75.5
2023-05-19T03:28:00.045Z,76
2023-05-19T03:29:05.336Z,76
2023-05-19T03:30:11.624Z,75.5
2023-05-19T03:31:16.890Z,75.5
2023-05-19T03:32:23.164Z,76
2023-05-19T03:33:29.423Z,75.5
2023-05-19T03:34:35.706Z,75.5
2023-05-19T03:35:41.989Z,75.5
2023-05-19T03:36:48.282Z,76
2023-05-19T03:37:54.533Z,76
2023-05-19T03:39:00.812Z,76
2023-05-19T03:40:07.075Z,76
2023-05-19T03:41:13.349Z,76
2023-05-19T03:42:19.651Z,76
2023-05-19T03:43:25.893Z,75.5
2023-05-19T03:44:32.159Z,76
2023-05-19T03:45:37.444Z,75.5
2023-05-19T03:46:43.740Z,75.5
2023-05-19T03:47:49.990Z,75.5
2023-05-19T03:48:56.265Z,75.5
2023-05-19T03:50:02.540Z,76
2023-05-19T03:51:08.811Z,76
2023-05-19T03:52:15.081Z,76
2023-05-19T03:53:21.348Z,76
2023-05-19T03:54:27.632Z,76
2023-05-19T03:55:33.896Z,76
2023-05-19T03:56:40.166Z,76.5
2023-05-19T03:57:46.449Z,76.5
2023-05-19T03:58:52.708Z,76.5
2023-05-19T03:59:57.996Z,76.5
2023-05-19T04:01:04.269Z,76.5
2023-05-19T04:02:10.554Z,76.5
2023-05-19T04:04:23.093Z,76.5
2023-05-19T04:05:29.374Z,76.5
2023-05-19T04:06:35.630Z,76.5
2023-05-19T04:07:41.917Z,76.5
2023-05-19T04:08:48.178Z,76.5
2023-05-19T04:09:54.448Z,76.5
2023-05-19T04:11:00.734Z,76.5
2023-05-19T04:12:07.005Z,76.5
2023-05-19T04:13:13.267Z,76.5
2023-05-19T04:14:18.572Z,76.5
2023-05-19T04:15:24.828Z,76
2023-05-19T04:16:31.099Z,76
2023-05-19T04:17:37.379Z,76.5
2023-05-19T04:18:43.651Z,76.5
2023-05-19T04:20:56.187Z,76
2023-05-19T04:22:02.466Z,76
2023-05-19T04:23:08.730Z,76
2023-05-19T04:24:15.038Z,76.5
2023-05-19T04:25:21.284Z,76
2023-05-19T04:26:27.554Z,76
2023-05-19T04:27:33.833Z,76
2023-05-19T04:28:39.122Z,76
2023-05-19T04:29:45.391Z,76
2023-05-19T04:30:51.654Z,76
2023-05-19T04:31:57.932Z,76
2023-05-19T04:33:04.201Z,76
2023-05-19T04:34:10.477Z,76
2023-05-19T04:35:16.750Z,76
2023-05-19T04:36:23.019Z,76
2023-05-19T04:37:29.314Z,76
2023-05-19T04:38:35.553Z,76
2023-05-19T04:39:41.840Z,76
2023-05-19T04:40:48.105Z,76
2023-05-19T04:41:54.393Z,76
2023-05-19T04:42:59.692Z,75.5
2023-05-19T04:44:05.928Z,76
2023-05-19T04:45:12.216Z,75.5
2023-05-19T04:46:18.484Z,75.5
2023-05-19T04:47:24.769Z,76
2023-05-19T04:48:31.023Z,75.5
2023-05-19T04:49:37.298Z,75.5
2023-05-19T04:50:43.578Z,76
2023-05-19T04:51:49.837Z,75.5
2023-05-19T04:52:56.124Z,75.5
2023-05-19T04:54:02.390Z,75.5
2023-05-19T04:55:08.655Z,75.5
2023-05-19T04:56:14.941Z,75.5
2023-05-19T04:57:20.229Z,75.5
2023-05-19T04:58:26.497Z,75.5
2023-05-19T04:59:32.773Z,75.5
2023-05-19T05:00:39.043Z,75.5
2023-05-19T05:01:45.310Z,75.5
2023-05-19T05:02:51.585Z,75.5
2023-05-19T05:03:57.852Z,75.5
2023-05-19T05:05:04.194Z,75.5
2023-05-19T05:06:10.380Z,75.5
2023-05-19T05:07:16.675Z,75.5
2023-05-19T05:08:22.928Z,75.5
2023-05-19T05:09:29.216Z,75.5
2023-05-19T05:10:35.476Z,75.5
2023-05-19T05:11:40.764Z,75.5
2023-05-19T05:12:47.030Z,75.5
2023-05-19T05:13:53.313Z,76
2023-05-19T05:14:59.580Z,75.5
2023-05-19T05:16:05.839Z,75.5
2023-05-19T05:17:12.134Z,75.5
2023-05-19T05:18:18.393Z,75.5
2023-05-19T05:19:24.672Z,75.5
2023-05-19T05:20:30.945Z,75.5
2023-05-19T05:21:37.219Z,75
2023-05-19T05:22:43.497Z,75
2023-05-19T05:23:49.759Z,75
2023-05-19T05:24:56.033Z,75
2023-05-19T05:26:01.338Z,75
2023-05-19T05:27:07.600Z,75
2023-05-19T05:28:13.865Z,75
2023-05-19T05:29:20.129Z,75
2023-05-19T05:30:26.404Z,75
2023-05-19T05:31:31.715Z,75
2023-05-19T05:32:36.994Z,75
2023-05-19T05:33:43.270Z,75
2023-05-19T05:34:49.535Z,75
2023-05-19T05:35:54.840Z,75
2023-05-19T05:37:01.108Z,75
2023-05-19T05:38:07.378Z,75
2023-05-19T05:39:13.649Z,75
2023-05-19T05:40:19.922Z,75
2023-05-19T05:41:26.260Z,74.5
2023-05-19T05:43:38.737Z,74.5
2023-05-19T05:44:45.053Z,74.5
2023-05-19T05:45:51.286Z,74.5
2023-05-19T05:46:57.598Z,74.5
2023-05-19T05:48:03.862Z,74.5
2023-05-19T05:49:10.131Z,74.5
2023-05-19T05:50:15.391Z,74.5
2023-05-19T05:51:21.720Z,74.5
2023-05-19T05:52:27.924Z,75
2023-05-19T05:53:34.204Z,74
2023-05-19T05:54:39.502Z,74
2023-05-19T05:55:44.784Z,74
2023-05-19T05:56:51.105Z,74.5
2023-05-19T05:57:57.337Z,74
2023-05-19T05:59:03.641Z,74
2023-05-19T06:00:09.968Z,74.5
2023-05-19T06:01:16.147Z,74
2023-05-19T06:02:22.428Z,74
2023-05-19T06:03:28.698Z,73.5
2023-05-19T06:04:34.964Z,74
2023-05-19T06:05:41.248Z,74
2023-05-19T06:06:47.522Z,74
2023-05-19T06:07:53.800Z,74
2023-05-19T06:09:00.063Z,74
2023-05-19T06:10:05.345Z,74
2023-05-19T06:11:11.618Z,74
2023-05-19T06:12:17.890Z,73.5
2023-05-19T06:13:24.156Z,73.5
2023-05-19T06:14:30.490Z,74
2023-05-19T06:15:36.709Z,74
2023-05-19T06:16:42.002Z,74
2023-05-19T06:17:47.291Z,73.5
2023-05-19T06:18:53.564Z,73.5
2023-05-19T06:19:59.840Z,74
2023-05-19T06:21:06.137Z,74
2023-05-19T06:22:12.386Z,74
2023-05-19T06:23:18.712Z,73.5
2023-05-19T06:24:24.951Z,73
2023-05-19T06:25:31.225Z,73
2023-05-19T06:26:37.513Z,73
2023-05-19T06:27:43.747Z,73
2023-05-19T06:28:50.029Z,73.5
2023-05-19T06:29:56.299Z,73
2023-05-19T06:31:02.566Z,73.5
2023-05-19T06:32:07.861Z,73
2023-05-19T06:33:14.154Z,73
2023-05-19T06:34:20.392Z,73
2023-05-19T06:35:26.659Z,72.5
2023-05-19T06:36:32.938Z,72.5
2023-05-19T06:37:39.201Z,72.5
2023-05-19T06:38:44.516Z,72.5
2023-05-19T06:39:49.800Z,72
2023-05-19T06:40:56.073Z,72
2023-05-19T06:42:02.366Z,73
2023-05-19T06:43:08.649Z,72.5
2023-05-19T06:44:14.881Z,72
2023-05-19T06:45:21.155Z,73.5
2023-05-19T06:46:27.422Z,72
2023-05-19T06:47:33.705Z,72
2023-05-19T06:48:39.983Z,73
2023-05-19T06:49:46.245Z,72
2023-05-19T06:50:52.516Z,71.5
2023-05-19T06:51:58.783Z,71
2023-05-19T06:53:05.066Z,71.5
2023-05-19T06:54:10.341Z,71
2023-05-19T06:55:16.617Z,71
2023-05-19T06:56:22.893Z,71
2023-05-19T06:57:29.162Z,71
2023-05-19T06:58:35.434Z,71
2023-05-19T06:59:41.700Z,71
2023-05-19T07:00:47.989Z,71
2023-05-19T07:01:54.241Z,71.5
2023-05-19T07:03:00.590Z,71
2023-05-19T07:04:06.796Z,71.5
2023-05-19T07:05:13.076Z,70.5
2023-05-19T07:06:19.394Z,70
2023-05-19T07:07:25.626Z,70
2023-05-19T07:08:30.905Z,70.5
2023-05-19T07:09:37.191Z,70.5
2023-05-19T07:10:43.441Z,69.5
2023-05-19T07:11:49.711Z,69.5
2023-05-19T07:12:55.982Z,71.5
2023-05-19T07:14:02.302Z,69
2023-05-19T07:15:08.526Z,70.5
2023-05-19T07:16:14.806Z,69.5
2023-05-19T07:17:21.073Z,69
2023-05-19T07:18:27.402Z,68.5
2023-05-19T07:19:33.649Z,68
2023-05-19T07:20:39.898Z,68
2023-05-19T07:21:46.175Z,67.5
2023-05-19T07:22:51.448Z,68.5
2023-05-19T07:23:57.841Z,66.5
2023-05-19T07:25:03.986Z,67
2023-05-19T07:26:10.388Z,67
2023-05-19T07:27:16.538Z,67
2023-05-19T07:28:22.847Z,67.5
2023-05-19T07:29:29.077Z,67
2023-05-19T07:30:35.360Z,67
2023-05-19T07:31:41.642Z,67
2023-05-19T07:32:48.056Z,66.5
2023-05-19T07:33:54.225Z,66
2023-05-19T07:35:00.429Z,65.5
2023-05-19T07:36:06.709Z,66
2023-05-19T07:37:12.112Z,66
2023-05-19T07:38:18.306Z,66
2023-05-19T07:39:24.646Z,65.5
2023-05-19T07:40:30.857Z,66
2023-05-19T07:41:37.173Z,65.5
2023-05-19T07:42:43.384Z,65.5
2023-05-19T07:43:49.777Z,66
2023-05-19T07:44:56.043Z,66
2023-05-19T07:46:02.210Z,65
2023-05-19T07:47:08.439Z,65
2023-05-19T07:48:14.725Z,64.5
2023-05-19T07:49:21.190Z,64
2023-05-19T07:50:27.377Z,64.5
2023-05-19T07:51:32.656Z,64.5
2023-05-19T07:52:38.835Z,64.5
2023-05-19T07:53:45.108Z,64
2023-05-19T07:54:51.381Z,64
2023-05-19T07:55:57.657Z,63.5
2023-05-19T07:57:03.909Z,63.5
2023-05-19T07:58:10.249Z,64
2023-05-19T07:59:16.474Z,64
2023-05-19T08:00:22.785Z,63.5
2023-05-19T08:01:29.061Z,64.5
2023-05-19T08:02:35.275Z,66
2023-05-19T08:03:41.575Z,63.5
2023-05-19T08:04:47.798Z,63.5
2023-05-19T08:05:53.201Z,64
2023-05-19T08:06:59.446Z,63.5
2023-05-19T08:08:05.627Z,63.5
2023-05-19T08:09:11.988Z,63.5
2023-05-19T08:10:18.200Z,63.5
2023-05-19T08:11:24.456Z,63
2023-05-19T08:12:30.720Z,63.5
2023-05-19T08:13:36.989Z,63.5
2023-05-19T08:14:43.273Z,63
2023-05-19T08:15:49.532Z,63
2023-05-19T08:16:55.799Z,62.5
2023-05-19T08:18:02.089Z,63
2023-05-19T08:19:08.358Z,63
2023-05-19T08:20:13.796Z,63
2023-05-19T08:21:19.907Z,62.5
2023-05-19T08:22:26.178Z,63.5
2023-05-19T08:23:32.462Z,62.5
2023-05-19T08:24:38.726Z,63
2023-05-19T08:25:45.015Z,63.5
2023-05-19T08:26:51.277Z,63.5
2023-05-19T08:27:57.585Z,63.5
2023-05-19T08:29:03.814Z,63.5
2023-05-19T08:30:10.158Z,63
2023-05-19T08:31:16.357Z,63.5
2023-05-19T08:32:22.635Z,63
2023-05-19T08:33:29.000Z,63
2023-05-19T08:34:34.353Z,63.5
2023-05-19T08:35:40.455Z,63.5
2023-05-19T08:36:46.725Z,64.5
2023-05-19T08:37:53.025Z,64
2023-05-19T08:38:59.286Z,64.5
2023-05-19T08:40:05.546Z,63.5
2023-05-19T08:41:11.831Z,63.5
2023-05-19T08:42:18.107Z,63.5
2023-05-19T08:43:24.405Z,63
2023-05-19T08:44:30.649Z,64
2023-05-19T08:45:36.932Z,64
2023-05-19T08:46:43.177Z,63
2023-05-19T08:47:49.453Z,63.5
2023-05-19T08:48:54.732Z,64
2023-05-19T08:50:01.052Z,63
2023-05-19T08:51:07.280Z,63.5
2023-05-19T08:52:13.581Z,63.5
2023-05-19T08:53:19.991Z,63.5
2023-05-19T08:54:26.267Z,63.5
2023-05-19T08:55:32.557Z,64
2023-05-19T08:56:38.847Z,63.5
2023-05-19T08:57:45.087Z,63
2023-05-19T08:58:51.324Z,63
2023-05-19T08:59:57.608Z,62.5
2023-05-19T09:02:10.232Z,63.5
2023-05-19T09:03:15.280Z,63.5
2023-05-19T09:04:21.696Z,64
2023-05-19T09:05:28.034Z,63
2023-05-19T09:06:34.246Z,63
2023-05-19T09:07:40.584Z,63.5
2023-05-19T09:08:46.811Z,64
2023-05-19T09:09:53.068Z,64
2023-05-19T09:10:59.398Z,63
2023-05-19T09:12:05.739Z,63.5
2023-05-19T09:13:11.965Z,64
2023-05-19T09:14:18.205Z,63.5
2023-05-19T09:15:24.360Z,63
2023-05-19T09:16:30.621Z,63.5
2023-05-19T09:17:35.993Z,64
2023-05-19T09:18:42.276Z,63.5
2023-05-19T09:19:48.543Z,63.5
2023-05-19T09:20:54.639Z,62.5
2023-05-19T09:22:01.139Z,62.5
2023-05-19T09:23:07.423Z,62
2023-05-19T09:24:13.669Z,62
2023-05-19T09:25:19.842Z,61.5
2023-05-19T09:26:26.117Z,62
2023-05-19T09:27:32.430Z,61.5
2023-05-19T09:28:38.553Z,62.5
2023-05-19T09:29:44.999Z,63.5
2023-05-19T09:30:51.262Z,61.5
2023-05-19T09:31:56.377Z,62
2023-05-19T09:33:02.863Z,61
2023-05-19T09:34:09.096Z,61
2023-05-19T09:35:15.272Z,61
2023-05-19T09:36:21.593Z,61
2023-05-19T09:37:27.872Z,60.5
2023-05-19T09:38:34.234Z,59.5
2023-05-19T09:39:40.433Z,59
2023-05-19T09:40:46.726Z,60
2023-05-19T09:41:52.958Z,60
2023-05-19T09:42:59.252Z,60
2023-05-19T09:44:05.542Z,59.5
2023-05-19T09:45:11.783Z,61.5
2023-05-19T09:46:17.187Z,59
2023-05-19T09:47:23.400Z,58.5
2023-05-19T09:48:29.621Z,58
2023-05-19T09:49:35.760Z,58.5
2023-05-19T09:50:42.212Z,59
2023-05-19T09:51:48.289Z,58.5
2023-05-19T09:52:54.583Z,59.5
2023-05-19T09:54:01.003Z,57.5
2023-05-19T09:55:07.254Z,58.5
2023-05-19T09:56:13.569Z,58
2023-05-19T09:57:19.826Z,57.5
2023-05-19T09:58:26.045Z,57
2023-05-19T09:59:32.402Z,58.5
2023-05-19T10:00:37.621Z,57
2023-05-19T10:01:43.969Z,57
2023-05-19T10:02:50.141Z,58
2023-05-19T10:03:56.442Z,58
2023-05-19T10:05:02.870Z,57
2023-05-19T10:06:08.832Z,58
2023-05-19T10:07:15.270Z,56.5
2023-05-19T10:08:21.501Z,58
2023-05-19T10:09:27.848Z,56.5
2023-05-19T10:10:33.909Z,56.5
2023-05-19T10:11:40.274Z,57
2023-05-19T10:12:46.525Z,56.5
2023-05-19T10:13:52.934Z,56
2023-05-19T10:14:58.042Z,56.5
2023-05-19T10:16:04.519Z,57
2023-05-19T10:17:10.569Z,57
2023-05-19T10:18:16.971Z,55.5
2023-05-19T10:19:23.329Z,55.5
2023-05-19T10:20:29.384Z,55.5
2023-05-19T10:21:35.827Z,56.5
2023-05-19T10:22:42.129Z,55.5
2023-05-19T10:24:54.559Z,55.5
2023-05-19T10:26:00.899Z,54
2023-05-19T10:27:07.272Z,55
2023-05-19T10:28:13.370Z,56
2023-05-19T10:29:18.815Z,54.5
2023-05-19T10:30:24.839Z,55
2023-05-19T10:31:31.109Z,56.5
2023-05-19T10:32:37.470Z,56
2023-05-19T10:33:43.880Z,55.5
2023-05-19T10:34:50.092Z,57.5
2023-05-19T10:35:56.260Z,55.5
2023-05-19T10:37:02.578Z,55
2023-05-19T10:38:08.933Z,55
2023-05-19T10:39:15.200Z,54.5
2023-05-19T10:40:21.304Z,56
2023-05-19T10:41:27.764Z,54.5
2023-05-19T10:42:33.825Z,54.5
2023-05-19T10:43:39.260Z,53.5
2023-05-19T10:44:45.574Z,53.5
2023-05-19T10:45:51.836Z,53
2023-05-19T10:46:58.049Z,54
2023-05-19T10:48:04.374Z,54.5
2023-05-19T10:49:10.706Z,54.5
2023-05-19T10:50:16.791Z,54.5
2023-05-19T10:51:23.211Z,53.5
2023-05-19T10:52:29.343Z,53.5
2023-05-19T10:53:35.728Z,54
2023-05-19T10:54:41.935Z,53.5
2023-05-19T10:55:48.101Z,53.5
2023-05-19T10:56:54.548Z,53.5
2023-05-19T10:57:59.856Z,54
2023-05-19T10:59:05.998Z,54
2023-05-19T11:00:12.345Z,55.5
2023-05-19T11:01:18.523Z,54
2023-05-19T11:02:24.960Z,54.5
2023-05-19T11:03:31.167Z,56
2023-05-19T11:04:37.472Z,55
2023-05-19T11:05:43.711Z,55.5
2023-05-19T11:06:50.011Z,55.5
2023-05-19T11:07:56.256Z,54.5
2023-05-19T11:09:02.540Z,55
2023-05-19T11:10:08.792Z,55
2023-05-19T11:11:15.092Z,55
2023-05-19T11:12:20.339Z,55
2023-05-19T11:13:26.659Z,54.5
2023-05-19T11:14:32.924Z,54.5
2023-05-19T11:15:39.173Z,55.5
2023-05-19T11:16:45.463Z,54.5
2023-05-19T11:17:51.565Z,55
2023-05-19T11:18:57.993Z,54.5
2023-05-19T11:20:04.179Z,55
2023-05-19T11:21:10.472Z,55
2023-05-19T11:22:16.761Z,55.5
2023-05-19T11:23:23.050Z,54.5
2023-05-19T11:24:29.332Z,55
2023-05-19T11:25:35.626Z,54.5
2023-05-19T11:26:40.935Z,55
2023-05-19T11:27:47.189Z,54.5
2023-05-19T11:28:53.401Z,55
2023-05-19T11:31:06.088Z,55
2023-05-19T11:32:12.114Z,55
2023-05-19T11:33:18.446Z,56
2023-05-19T11:34:24.669Z,55.5
2023-05-19T11:35:31.010Z,55.5
2023-05-19T11:36:37.227Z,56
2023-05-19T11:37:43.596Z,55.5
2023-05-19T11:38:49.914Z,56
2023-05-19T11:39:56.219Z,56
2023-05-19T11:41:01.516Z,56
2023-05-19T11:42:07.704Z,57
2023-05-19T11:43:13.853Z,57
2023-05-19T11:44:20.119Z,57
2023-05-19T11:45:26.397Z,56.5
2023-05-19T11:46:32.856Z,57
2023-05-19T11:47:39.025Z,56.5
2023-05-19T11:48:45.226Z,57.5
2023-05-19T11:49:51.556Z,58.5
2023-05-19T11:50:57.959Z,57
2023-05-19T11:52:04.214Z,57
2023-05-19T11:53:10.302Z,57.5
2023-05-19T11:54:16.656Z,57
2023-05-19T11:55:22.068Z,57
2023-05-19T11:56:28.330Z,57
2023-05-19T11:57:34.578Z,56.5
2023-05-19T11:58:40.821Z,57
2023-05-19T11:59:47.121Z,57
2023-05-19T12:00:53.211Z,56.5
2023-05-19T12:01:59.609Z,56
2023-05-19T12:03:05.789Z,56
2023-05-19T12:04:12.161Z,57.5
2023-05-19T12:05:18.357Z,57
2023-05-19T12:06:24.572Z,56
2023-05-19T12:07:31.029Z,57
2023-05-19T12:08:37.124Z,55.5
2023-05-19T12:09:42.545Z,55.5
2023-05-19T12:10:48.735Z,56.5
2023-05-19T12:11:55.119Z,56.5
2023-05-19T12:13:01.248Z,56.5
2023-05-19T12:14:07.580Z,56.5
2023-05-19T12:15:13.919Z,56.5
2023-05-19T12:16:20.168Z,57
2023-05-19T12:17:26.470Z,57
2023-05-19T12:18:32.640Z,56.5
2023-05-19T12:19:38.988Z,57
2023-05-19T12:20:45.293Z,57.5
2023-05-19T12:21:51.480Z,58
2023-05-19T12:22:57.837Z,57
2023-05-19T12:24:02.969Z,57
2023-05-19T12:25:09.351Z,57
2023-05-19T12:26:15.682Z,57
2023-05-19T12:27:21.808Z,57.5
2023-05-19T12:28:28.202Z,57.5
2023-05-19T12:29:34.463Z,58
2023-05-19T12:30:40.676Z,58
2023-05-19T12:31:47.011Z,57.5
2023-05-19T12:32:53.293Z,57.5
2023-05-19T12:33:59.552Z,57
2023-05-19T12:35:05.784Z,57.5
2023-05-19T12:36:12.097Z,57
2023-05-19T12:37:18.411Z,58.5
2023-05-19T12:38:23.666Z,57.5
2023-05-19T12:39:29.756Z,58
2023-05-19T12:40:36.165Z,57.5
2023-05-19T12:41:42.485Z,58
2023-05-19T12:42:48.578Z,58
2023-05-19T12:43:54.885Z,58
2023-05-19T12:45:01.290Z,58
2023-05-19T12:46:07.588Z,58
2023-05-19T12:47:13.844Z,58.5
2023-05-19T12:48:20.121Z,58.5
2023-05-19T12:49:26.366Z,59
2023-05-19T12:50:32.480Z,59
2023-05-19T12:51:38.853Z,59.5
2023-05-19T12:53:50.522Z,59.5
2023-05-19T12:54:56.720Z,60
2023-05-19T12:56:02.854Z,59.5
2023-05-19T12:57:09.168Z,59.5
2023-05-19T12:58:15.387Z,59.5
2023-05-19T12:59:20.850Z,60
2023-05-19T13:00:27.020Z,59
2023-05-19T13:01:33.394Z,58.5
2023-05-19T13:02:39.736Z,58
2023-05-19T13:03:45.771Z,58.5
2023-05-19T13:04:52.056Z,58.5
2023-05-19T13:05:58.322Z,58.5
2023-05-19T13:07:04.593Z,58.5
2023-05-19T13:08:10.877Z,58.5
2023-05-19T13:09:17.143Z,58
2023-05-19T13:10:23.407Z,58
2023-05-19T13:11:29.680Z,58.5
2023-05-19T13:12:35.951Z,58.5
2023-05-19T13:13:41.255Z,58.5
2023-05-19T13:14:47.522Z,58.5
2023-05-19T13:15:53.791Z,58
2023-05-19T13:17:00.067Z,58
2023-05-19T13:18:06.330Z,59
2023-05-19T13:19:12.588Z,58.5
2023-05-19T13:20:18.859Z,58.5
2023-05-19T13:21:25.314Z,59
2023-05-19T13:22:31.562Z,58.5
2023-05-19T13:23:37.919Z,58
2023-05-19T13:24:44.040Z,59.5
2023-05-19T13:25:50.308Z,58
2023-05-19T13:26:56.666Z,58
2023-05-19T13:28:01.954Z,60
2023-05-19T13:29:08.232Z,58.5
2023-05-19T13:30:14.480Z,59
2023-05-19T13:31:20.856Z,58.5
2023-05-19T13:32:27.142Z,58.5
2023-05-19T13:33:33.341Z,59
2023-05-19T13:34:39.562Z,58.5
2023-05-19T13:35:45.684Z,58.5
2023-05-19T13:36:52.031Z,58.5
2023-05-19T13:37:58.251Z,59
2023-05-19T13:39:04.706Z,58.5
2023-05-19T13:40:10.797Z,59
2023-05-19T13:41:17.185Z,59
2023-05-19T13:42:22.527Z,59
2023-05-19T13:43:28.791Z,60
2023-05-19T13:44:34.875Z,59
2023-05-19T13:45:41.348Z,59.5
2023-05-19T13:46:47.485Z,59.5
2023-05-19T13:47:53.679Z,59.5
2023-05-19T13:48:59.959Z,59.5
2023-05-19T13:50:06.235Z,61
2023-05-19T13:51:12.566Z,60.5
2023-05-19T13:52:18.921Z,60.5
2023-05-19T13:53:25.092Z,60
2023-05-19T13:54:31.474Z,59.5
2023-05-19T13:55:37.675Z,59
2023-05-19T13:56:42.922Z,59
2023-05-19T13:57:49.141Z,59.5
2023-05-19T13:58:55.622Z,60.5
2023-05-19T14:00:01.955Z,60
2023-05-19T14:01:08.010Z,60.5
2023-05-19T14:02:14.364Z,59
2023-05-19T14:03:20.725Z,60
2023-05-19T14:04:26.934Z,59.5
2023-05-19T14:05:33.140Z,59.5
2023-05-19T14:06:39.390Z,60
2023-05-19T14:07:45.783Z,59
2023-05-19T14:08:51.863Z,59.5
2023-05-19T14:09:58.287Z,59
2023-05-19T14:11:03.605Z,59.5
2023-05-19T14:12:09.868Z,59.5
2023-05-19T14:13:16.112Z,60
2023-05-19T14:14:22.294Z,60
2023-05-19T14:15:28.516Z,59.5
2023-05-19T14:16:34.905Z,59.5
2023-05-19T14:17:41.233Z,60
2023-05-19T14:18:47.455Z,59.5
2023-05-19T14:19:53.776Z,60
2023-05-19T14:21:00.045Z,60
2023-05-19T14:22:06.142Z,60
2023-05-19T14:23:12.503Z,59.5
2023-05-19T14:24:18.881Z,60
2023-05-19T14:25:24.217Z,60
2023-05-19T14:26:30.414Z,60
2023-05-19T14:27:36.720Z,60
2023-05-19T14:28:42.935Z,60
2023-05-19T14:29:49.209Z,61.5
2023-05-19T14:30:55.323Z,60.5
2023-05-19T14:32:01.611Z,60.5
2023-05-19T14:33:07.952Z,60.5
2023-05-19T14:34:14.295Z,60
2023-05-19T14:35:20.663Z,60
2023-05-19T14:36:26.820Z,60
2023-05-19T14:37:33.167Z,60.5
2023-05-19T14:38:39.358Z,60.5
2023-05-19T14:39:44.778Z,60.5
2023-05-19T14:40:50.955Z,60.5
2023-05-19T14:41:57.249Z,60
2023-05-19T14:43:03.588Z,60.5
2023-05-19T14:44:09.769Z,60
2023-05-19T14:45:16.009Z,60
2023-05-19T14:46:22.226Z,60
2023-05-19T14:47:28.427Z,60
2023-05-19T14:48:34.885Z,60
2023-05-19T14:49:41.138Z,60
2023-05-19T14:50:47.326Z,60
2023-05-19T14:51:53.599Z,60
2023-05-19T14:52:59.958Z,59.5
2023-05-19T14:54:05.133Z,60.5
2023-05-19T14:55:11.447Z,60.5
2023-05-19T14:56:17.750Z,60.5
2023-05-19T14:57:24.043Z,60
2023-05-19T14:58:30.157Z,60
2023-05-19T14:59:36.421Z,61.5
2023-05-19T15:00:42.771Z,60.5
2023-05-19T15:01:49.209Z,60.5
2023-05-19T15:02:55.466Z,60
2023-05-19T15:04:01.509Z,60.5
2023-05-19T15:05:07.912Z,60.5
2023-05-19T15:06:14.202Z,61.5
2023-05-19T15:07:20.430Z,60
2023-05-19T15:08:25.753Z,60
2023-05-19T15:09:32.133Z,60
2023-05-19T15:10:38.303Z,60
2023-05-19T15:11:44.598Z,60.5
2023-05-19T15:12:50.776Z,60.5
2023-05-19T15:13:57.071Z,60.5
2023-05-19T15:15:03.508Z,60
2023-05-19T15:16:09.729Z,60.5
2023-05-19T15:17:15.950Z,60
2023-05-19T15:18:22.208Z,59.5
2023-05-19T15:19:28.443Z,60.5